sensor_id;sensor_type;location;lat;lon;timestamp;P1;durP1;ratioP1;P2;durP2;ratioP2
14722;SDS011;7452;55.594;12.986;2023-03-20T00:00:26;52.63;;;42.60;;
14722;SDS011;7452;55.594;12.986;2023-03-20T00:02:56;53.23;;;42.53;;
14722;SDS011;7452;55.594;12.986;2023-03-20T00:05:23;52.83;;;42.13;;
14722;SDS011;7452;55.594;12.986;2023-03-20T00:07:52;51.10;;;40.93;;
14722;SDS011;7452;55.594;12.986;2023-03-20T00:10:21;51.20;;;41.67;;
14722;SDS011;7452;55.594;12.986;2023-03-20T00:12:53;55.37;;;43.57;;
14722;SDS011;7452;55.594;12.986;2023-03-20T00:15:31;53.30;;;42.70;;
14722;SDS011;7452;55.594;12.986;2023-03-20T00:18:02;51.87;;;41.23;;
14722;SDS011;7452;55.594;12.986;2023-03-20T00:20:29;55.10;;;42.13;;
14722;SDS011;7452;55.594;12.986;2023-03-20T00:22:56;57.20;;;43.50;;
14722;SDS011;7452;55.594;12.986;2023-03-20T00:25:24;52.70;;;41.67;;
14722;SDS011;7452;55.594;12.986;2023-03-20T00:27:52;55.90;;;43.73;;
14722;SDS011;7452;55.594;12.986;2023-03-20T00:30:21;56.87;;;42.53;;
14722;SDS011;7452;55.594;12.986;2023-03-20T00:32:54;53.27;;;42.47;;
14722;SDS011;7452;55.594;12.986;2023-03-20T00:35:23;56.03;;;44.93;;
14722;SDS011;7452;55.594;12.986;2023-03-20T00:37:52;54.27;;;43.37;;
14722;SDS011;7452;55.594;12.986;2023-03-20T00:40:19;56.90;;;43.93;;
14722;SDS011;7452;55.594;12.986;2023-03-20T00:42:49;58.23;;;44.60;;
14722;SDS011;7452;55.594;12.986;2023-03-20T00:45:19;62.27;;;46.63;;
14722;SDS011;7452;55.594;12.986;2023-03-20T00:47:47;64.40;;;47.73;;
14722;SDS011;7452;55.594;12.986;2023-03-20T00:50:17;63.77;;;47.63;;
14722;SDS011;7452;55.594;12.986;2023-03-20T00:52:46;65.70;;;47.60;;
14722;SDS011;7452;55.594;12.986;2023-03-20T00:55:13;62.10;;;47.83;;
14722;SDS011;7452;55.594;12.986;2023-03-20T00:57:44;63.13;;;47.43;;
14722;SDS011;7452;55.594;12.986;2023-03-20T01:03:05;63.93;;;48.17;;
14722;SDS011;7452;55.594;12.986;2023-03-20T01:05:38;67.70;;;51.33;;
14722;SDS011;7452;55.594;12.986;2023-03-20T01:08:09;65.87;;;50.03;;
14722;SDS011;7452;55.594;12.986;2023-03-20T01:10:38;69.37;;;49.47;;
14722;SDS011;7452;55.594;12.986;2023-03-20T01:13:05;71.20;;;51.27;;
14722;SDS011;7452;55.594;12.986;2023-03-20T01:15:44;66.57;;;50.33;;
14722;SDS011;7452;55.594;12.986;2023-03-20T01:18:11;71.53;;;51.73;;
14722;SDS011;7452;55.594;12.986;2023-03-20T01:20:39;73.73;;;51.83;;
14722;SDS011;7452;55.594;12.986;2023-03-20T01:23:06;68.47;;;51.23;;
14722;SDS011;7452;55.594;12.986;2023-03-20T01:25:33;76.60;;;51.97;;
14722;SDS011;7452;55.594;12.986;2023-03-20T01:28:01;74.13;;;52.23;;
14722;SDS011;7452;55.594;12.986;2023-03-20T01:30:36;71.23;;;50.03;;
14722;SDS011;7452;55.594;12.986;2023-03-20T01:33:08;67.80;;;48.80;;
14722;SDS011;7452;55.594;12.986;2023-03-20T01:35:39;71.80;;;50.07;;
14722;SDS011;7452;55.594;12.986;2023-03-20T01:38:09;77.30;;;46.20;;
14722;SDS011;7452;55.594;12.986;2023-03-20T01:40:40;88.23;;;47.70;;
14722;SDS011;7452;55.594;12.986;2023-03-20T01:43:16;79.93;;;47.23;;
14722;SDS011;7452;55.594;12.986;2023-03-20T01:45:46;115.60;;;48.87;;
14722;SDS011;7452;55.594;12.986;2023-03-20T01:48:22;134.17;;;44.50;;
14722;SDS011;7452;55.594;12.986;2023-03-20T01:50:50;120.30;;;44.60;;
14722;SDS011;7452;55.594;12.986;2023-03-20T01:53:18;107.47;;;43.43;;
14722;SDS011;7452;55.594;12.986;2023-03-20T01:55:47;95.97;;;42.10;;
14722;SDS011;7452;55.594;12.986;2023-03-20T01:58:20;139.90;;;41.07;;
14722;SDS011;7452;55.594;12.986;2023-03-20T02:00:50;135.57;;;41.30;;
14722;SDS011;7452;55.594;12.986;2023-03-20T02:03:17;110.13;;;39.53;;
14722;SDS011;7452;55.594;12.986;2023-03-20T02:05:49;118.60;;;39.70;;
14722;SDS011;7452;55.594;12.986;2023-03-20T02:08:18;115.47;;;39.33;;
14722;SDS011;7452;55.594;12.986;2023-03-20T02:10:49;117.60;;;39.83;;
14722;SDS011;7452;55.594;12.986;2023-03-20T02:13:16;120.67;;;40.33;;
14722;SDS011;7452;55.594;12.986;2023-03-20T02:16:03;101.60;;;38.53;;
14722;SDS011;7452;55.594;12.986;2023-03-20T02:18:32;103.17;;;37.10;;
14722;SDS011;7452;55.594;12.986;2023-03-20T02:24:37;76.27;;;34.00;;
14722;SDS011;7452;55.594;12.986;2023-03-20T02:27:29;65.03;;;31.57;;
14722;SDS011;7452;55.594;12.986;2023-03-20T02:30:12;61.60;;;28.00;;
14722;SDS011;7452;55.594;12.986;2023-03-20T02:33:04;57.97;;;27.57;;
14722;SDS011;7452;55.594;12.986;2023-03-20T02:36:03;50.13;;;24.53;;
14722;SDS011;7452;55.594;12.986;2023-03-20T02:38:59;51.57;;;24.30;;
14722;SDS011;7452;55.594;12.986;2023-03-20T02:41:39;48.40;;;24.33;;
14722;SDS011;7452;55.594;12.986;2023-03-20T02:44:11;50.83;;;24.00;;
14722;SDS011;7452;55.594;12.986;2023-03-20T02:46:46;50.90;;;23.80;;
14722;SDS011;7452;55.594;12.986;2023-03-20T02:49:23;58.40;;;24.37;;
14722;SDS011;7452;55.594;12.986;2023-03-20T02:52:05;53.80;;;25.20;;
14722;SDS011;7452;55.594;12.986;2023-03-20T02:54:45;52.00;;;24.37;;
14722;SDS011;7452;55.594;12.986;2023-03-20T02:57:20;50.40;;;23.40;;
14722;SDS011;7452;55.594;12.986;2023-03-20T02:59:54;48.90;;;22.20;;
14722;SDS011;7452;55.594;12.986;2023-03-20T03:02:27;54.20;;;23.83;;
14722;SDS011;7452;55.594;12.986;2023-03-20T03:05:00;51.30;;;23.57;;
14722;SDS011;7452;55.594;12.986;2023-03-20T03:07:33;55.13;;;24.23;;
14722;SDS011;7452;55.594;12.986;2023-03-20T03:10:04;48.27;;;22.80;;
14722;SDS011;7452;55.594;12.986;2023-03-20T03:12:34;55.37;;;24.07;;
14722;SDS011;7452;55.594;12.986;2023-03-20T03:15:06;47.13;;;23.17;;
14722;SDS011;7452;55.594;12.986;2023-03-20T03:17:39;49.40;;;21.90;;
14722;SDS011;7452;55.594;12.986;2023-03-20T03:20:13;41.70;;;21.13;;
14722;SDS011;7452;55.594;12.986;2023-03-20T03:22:46;45.30;;;20.03;;
14722;SDS011;7452;55.594;12.986;2023-03-20T03:25:16;36.57;;;19.30;;
14722;SDS011;7452;55.594;12.986;2023-03-20T03:27:43;38.40;;;18.30;;
14722;SDS011;7452;55.594;12.986;2023-03-20T03:30:15;36.17;;;18.47;;
14722;SDS011;7452;55.594;12.986;2023-03-20T03:32:48;35.37;;;17.07;;
14722;SDS011;7452;55.594;12.986;2023-03-20T03:35:17;33.23;;;16.63;;
14722;SDS011;7452;55.594;12.986;2023-03-20T03:37:48;32.83;;;16.93;;
14722;SDS011;7452;55.594;12.986;2023-03-20T03:40:26;32.97;;;16.53;;
14722;SDS011;7452;55.594;12.986;2023-03-20T03:43:00;30.60;;;16.07;;
14722;SDS011;7452;55.594;12.986;2023-03-20T03:45:33;31.70;;;15.57;;
14722;SDS011;7452;55.594;12.986;2023-03-20T03:48:05;31.37;;;16.03;;
14722;SDS011;7452;55.594;12.986;2023-03-20T03:50:36;24.87;;;13.33;;
14722;SDS011;7452;55.594;12.986;2023-03-20T03:53:12;22.60;;;13.37;;
14722;SDS011;7452;55.594;12.986;2023-03-20T03:55:43;21.10;;;12.10;;
14722;SDS011;7452;55.594;12.986;2023-03-20T03:58:16;22.80;;;12.67;;
14722;SDS011;7452;55.594;12.986;2023-03-20T04:00:48;17.47;;;10.57;;
14722;SDS011;7452;55.594;12.986;2023-03-20T04:03:17;20.17;;;11.30;;
14722;SDS011;7452;55.594;12.986;2023-03-20T04:05:47;19.47;;;11.30;;
14722;SDS011;7452;55.594;12.986;2023-03-20T04:08:17;19.23;;;11.40;;
14722;SDS011;7452;55.594;12.986;2023-03-20T04:10:45;18.70;;;10.53;;
14722;SDS011;7452;55.594;12.986;2023-03-20T04:13:12;15.57;;;10.00;;
14722;SDS011;7452;55.594;12.986;2023-03-20T04:15:40;17.53;;;10.60;;
14722;SDS011;7452;55.594;12.986;2023-03-20T04:18:07;15.67;;;10.13;;
14722;SDS011;7452;55.594;12.986;2023-03-20T04:20:39;15.57;;;10.17;;
14722;SDS011;7452;55.594;12.986;2023-03-20T04:23:06;17.07;;;10.87;;
14722;SDS011;7452;55.594;12.986;2023-03-20T04:25:33;17.43;;;10.33;;
14722;SDS011;7452;55.594;12.986;2023-03-20T04:28:01;17.10;;;10.60;;
14722;SDS011;7452;55.594;12.986;2023-03-20T04:30:28;15.37;;;8.93;;
14722;SDS011;7452;55.594;12.986;2023-03-20T04:32:56;14.87;;;9.30;;
14722;SDS011;7452;55.594;12.986;2023-03-20T04:35:23;15.20;;;9.57;;
14722;SDS011;7452;55.594;12.986;2023-03-20T04:37:50;15.23;;;8.83;;
14722;SDS011;7452;55.594;12.986;2023-03-20T04:40:17;13.87;;;8.33;;
14722;SDS011;7452;55.594;12.986;2023-03-20T04:42:44;14.00;;;9.37;;
14722;SDS011;7452;55.594;12.986;2023-03-20T04:45:12;14.63;;;9.27;;
14722;SDS011;7452;55.594;12.986;2023-03-20T04:47:39;15.53;;;9.00;;
14722;SDS011;7452;55.594;12.986;2023-03-20T04:50:06;13.00;;;9.00;;
14722;SDS011;7452;55.594;12.986;2023-03-20T04:52:34;13.33;;;8.67;;
14722;SDS011;7452;55.594;12.986;2023-03-20T04:55:01;14.33;;;8.83;;
14722;SDS011;7452;55.594;12.986;2023-03-20T04:57:29;12.73;;;8.60;;
14722;SDS011;7452;55.594;12.986;2023-03-20T04:59:56;13.97;;;7.77;;
14722;SDS011;7452;55.594;12.986;2023-03-20T05:02:24;13.83;;;8.33;;
14722;SDS011;7452;55.594;12.986;2023-03-20T05:04:51;13.73;;;8.63;;
14722;SDS011;7452;55.594;12.986;2023-03-20T05:07:18;12.60;;;7.57;;
14722;SDS011;7452;55.594;12.986;2023-03-20T05:09:45;14.43;;;8.53;;
14722;SDS011;7452;55.594;12.986;2023-03-20T05:12:12;14.43;;;9.00;;
14722;SDS011;7452;55.594;12.986;2023-03-20T05:14:39;15.07;;;9.30;;
14722;SDS011;7452;55.594;12.986;2023-03-20T05:17:06;16.03;;;9.80;;
14722;SDS011;7452;55.594;12.986;2023-03-20T05:19:34;18.63;;;11.43;;
14722;SDS011;7452;55.594;12.986;2023-03-20T05:22:02;19.07;;;12.07;;
14722;SDS011;7452;55.594;12.986;2023-03-20T05:24:29;22.10;;;12.33;;
14722;SDS011;7452;55.594;12.986;2023-03-20T05:26:57;21.87;;;12.40;;
14722;SDS011;7452;55.594;12.986;2023-03-20T05:29:23;22.40;;;13.53;;
14722;SDS011;7452;55.594;12.986;2023-03-20T05:31:50;26.70;;;14.23;;
14722;SDS011;7452;55.594;12.986;2023-03-20T05:34:19;25.57;;;14.33;;
14722;SDS011;7452;55.594;12.986;2023-03-20T05:36:47;26.67;;;14.80;;
14722;SDS011;7452;55.594;12.986;2023-03-20T05:39:14;28.73;;;14.37;;
14722;SDS011;7452;55.594;12.986;2023-03-20T05:41:41;27.10;;;14.87;;
14722;SDS011;7452;55.594;12.986;2023-03-20T05:44:08;27.17;;;15.03;;
14722;SDS011;7452;55.594;12.986;2023-03-20T05:46:35;26.67;;;14.33;;
14722;SDS011;7452;55.594;12.986;2023-03-20T05:49:02;30.60;;;15.07;;
14722;SDS011;7452;55.594;12.986;2023-03-20T05:51:29;25.40;;;14.80;;
14722;SDS011;7452;55.594;12.986;2023-03-20T05:53:57;26.27;;;15.50;;
14722;SDS011;7452;55.594;12.986;2023-03-20T05:56:24;25.73;;;15.30;;
14722;SDS011;7452;55.594;12.986;2023-03-20T05:58:51;31.57;;;15.93;;
14722;SDS011;7452;55.594;12.986;2023-03-20T06:01:17;29.00;;;15.57;;
14722;SDS011;7452;55.594;12.986;2023-03-20T06:03:45;31.87;;;17.10;;
14722;SDS011;7452;55.594;12.986;2023-03-20T06:06:12;30.17;;;16.13;;
14722;SDS011;7452;55.594;12.986;2023-03-20T06:08:40;32.13;;;16.57;;
14722;SDS011;7452;55.594;12.986;2023-03-20T06:11:08;27.93;;;14.90;;
14722;SDS011;7452;55.594;12.986;2023-03-20T06:13:35;26.10;;;15.70;;
14722;SDS011;7452;55.594;12.986;2023-03-20T06:16:02;28.60;;;16.13;;
14722;SDS011;7452;55.594;12.986;2023-03-20T06:18:30;28.83;;;15.73;;
14722;SDS011;7452;55.594;12.986;2023-03-20T06:20:57;28.63;;;15.57;;
14722;SDS011;7452;55.594;12.986;2023-03-20T06:23:24;27.17;;;15.43;;
14722;SDS011;7452;55.594;12.986;2023-03-20T06:25:51;24.53;;;15.17;;
14722;SDS011;7452;55.594;12.986;2023-03-20T06:28:19;28.97;;;15.10;;
14722;SDS011;7452;55.594;12.986;2023-03-20T06:30:46;25.93;;;14.87;;
14722;SDS011;7452;55.594;12.986;2023-03-20T06:33:17;22.33;;;13.27;;
14722;SDS011;7452;55.594;12.986;2023-03-20T06:35:44;26.07;;;14.00;;
14722;SDS011;7452;55.594;12.986;2023-03-20T06:38:12;24.23;;;14.43;;
14722;SDS011;7452;55.594;12.986;2023-03-20T06:40:39;23.07;;;13.30;;
14722;SDS011;7452;55.594;12.986;2023-03-20T06:43:07;24.00;;;12.57;;
14722;SDS011;7452;55.594;12.986;2023-03-20T06:45:38;22.20;;;12.47;;
14722;SDS011;7452;55.594;12.986;2023-03-20T06:48:05;18.40;;;11.60;;
14722;SDS011;7452;55.594;12.986;2023-03-20T06:50:32;16.27;;;11.27;;
14722;SDS011;7452;55.594;12.986;2023-03-20T06:52:59;19.07;;;12.10;;
14722;SDS011;7452;55.594;12.986;2023-03-20T06:55:26;15.20;;;10.67;;
14722;SDS011;7452;55.594;12.986;2023-03-20T06:57:53;16.00;;;10.70;;
14722;SDS011;7452;55.594;12.986;2023-03-20T07:00:20;18.13;;;10.70;;
14722;SDS011;7452;55.594;12.986;2023-03-20T07:02:49;17.53;;;11.17;;
14722;SDS011;7452;55.594;12.986;2023-03-20T07:05:16;17.60;;;9.93;;
14722;SDS011;7452;55.594;12.986;2023-03-20T07:07:43;13.73;;;9.73;;
14722;SDS011;7452;55.594;12.986;2023-03-20T07:10:10;14.40;;;9.17;;
14722;SDS011;7452;55.594;12.986;2023-03-20T07:12:37;13.57;;;9.57;;
14722;SDS011;7452;55.594;12.986;2023-03-20T07:15:04;13.17;;;8.63;;
14722;SDS011;7452;55.594;12.986;2023-03-20T07:17:32;13.43;;;8.37;;
14722;SDS011;7452;55.594;12.986;2023-03-20T07:20:00;12.80;;;8.30;;
14722;SDS011;7452;55.594;12.986;2023-03-20T07:22:28;12.40;;;8.13;;
14722;SDS011;7452;55.594;12.986;2023-03-20T07:24:56;14.40;;;7.80;;
14722;SDS011;7452;55.594;12.986;2023-03-20T07:27:23;9.23;;;6.87;;
14722;SDS011;7452;55.594;12.986;2023-03-20T07:29:50;8.43;;;6.60;;
14722;SDS011;7452;55.594;12.986;2023-03-20T07:32:17;8.43;;;6.07;;
14722;SDS011;7452;55.594;12.986;2023-03-20T07:34:45;8.27;;;5.50;;
14722;SDS011;7452;55.594;12.986;2023-03-20T07:37:15;7.63;;;4.90;;
14722;SDS011;7452;55.594;12.986;2023-03-20T07:39:41;6.93;;;5.67;;
14722;SDS011;7452;55.594;12.986;2023-03-20T07:42:08;6.53;;;4.67;;
14722;SDS011;7452;55.594;12.986;2023-03-20T07:44:37;5.30;;;4.73;;
14722;SDS011;7452;55.594;12.986;2023-03-20T07:47:04;6.30;;;5.03;;
14722;SDS011;7452;55.594;12.986;2023-03-20T07:49:32;6.07;;;5.07;;
14722;SDS011;7452;55.594;12.986;2023-03-20T07:51:59;8.37;;;5.77;;
14722;SDS011;7452;55.594;12.986;2023-03-20T07:54:27;15.10;;;6.57;;
14722;SDS011;7452;55.594;12.986;2023-03-20T07:56:54;10.20;;;5.83;;
14722;SDS011;7452;55.594;12.986;2023-03-20T07:59:21;8.30;;;5.50;;
14722;SDS011;7452;55.594;12.986;2023-03-20T08:01:47;6.67;;;5.27;;
14722;SDS011;7452;55.594;12.986;2023-03-20T08:04:14;9.87;;;5.37;;
14722;SDS011;7452;55.594;12.986;2023-03-20T08:06:43;9.50;;;5.47;;
14722;SDS011;7452;55.594;12.986;2023-03-20T08:09:10;6.40;;;5.73;;
14722;SDS011;7452;55.594;12.986;2023-03-20T08:11:38;6.30;;;5.50;;
14722;SDS011;7452;55.594;12.986;2023-03-20T08:14:05;6.43;;;5.60;;
14722;SDS011;7452;55.594;12.986;2023-03-20T08:16:32;7.23;;;5.70;;
14722;SDS011;7452;55.594;12.986;2023-03-20T08:18:59;7.77;;;5.43;;
14722;SDS011;7452;55.594;12.986;2023-03-20T08:21:27;7.63;;;5.27;;
14722;SDS011;7452;55.594;12.986;2023-03-20T08:23:54;7.67;;;5.97;;
14722;SDS011;7452;55.594;12.986;2023-03-20T08:26:24;6.70;;;5.40;;
14722;SDS011;7452;55.594;12.986;2023-03-20T08:28:53;6.23;;;5.40;;
14722;SDS011;7452;55.594;12.986;2023-03-20T08:31:20;6.50;;;5.77;;
14722;SDS011;7452;55.594;12.986;2023-03-20T08:33:47;5.70;;;5.10;;
14722;SDS011;7452;55.594;12.986;2023-03-20T08:36:14;6.37;;;4.80;;
14722;SDS011;7452;55.594;12.986;2023-03-20T08:38:43;5.90;;;4.93;;
14722;SDS011;7452;55.594;12.986;2023-03-20T08:41:10;6.03;;;4.80;;
14722;SDS011;7452;55.594;12.986;2023-03-20T08:43:38;6.93;;;5.07;;
14722;SDS011;7452;55.594;12.986;2023-03-20T08:46:06;6.00;;;4.83;;
14722;SDS011;7452;55.594;12.986;2023-03-20T08:48:33;6.63;;;5.03;;
14722;SDS011;7452;55.594;12.986;2023-03-20T08:51:00;5.93;;;4.90;;
14722;SDS011;7452;55.594;12.986;2023-03-20T08:53:28;8.77;;;5.43;;
14722;SDS011;7452;55.594;12.986;2023-03-20T08:55:55;5.57;;;4.83;;
14722;SDS011;7452;55.594;12.986;2023-03-20T08:58:21;9.33;;;5.17;;
14722;SDS011;7452;55.594;12.986;2023-03-20T09:00:48;6.20;;;5.23;;
14722;SDS011;7452;55.594;12.986;2023-03-20T09:03:17;7.13;;;5.17;;
14722;SDS011;7452;55.594;12.986;2023-03-20T09:05:45;7.50;;;5.00;;
14722;SDS011;7452;55.594;12.986;2023-03-20T09:08:14;8.27;;;5.57;;
14722;SDS011;7452;55.594;12.986;2023-03-20T09:10:41;5.90;;;4.90;;
14722;SDS011;7452;55.594;12.986;2023-03-20T09:13:08;5.10;;;4.60;;
14722;SDS011;7452;55.594;12.986;2023-03-20T09:15:35;6.10;;;4.70;;
14722;SDS011;7452;55.594;12.986;2023-03-20T09:18:02;7.67;;;5.13;;
14722;SDS011;7452;55.594;12.986;2023-03-20T09:20:30;6.30;;;4.93;;
14722;SDS011;7452;55.594;12.986;2023-03-20T09:22:57;7.37;;;5.13;;
14722;SDS011;7452;55.594;12.986;2023-03-20T09:25:24;5.90;;;5.10;;
14722;SDS011;7452;55.594;12.986;2023-03-20T09:27:51;5.17;;;4.20;;
14722;SDS011;7452;55.594;12.986;2023-03-20T09:30:19;6.37;;;5.07;;
14722;SDS011;7452;55.594;12.986;2023-03-20T09:32:46;6.57;;;5.10;;
14722;SDS011;7452;55.594;12.986;2023-03-20T09:35:14;5.97;;;4.60;;
14722;SDS011;7452;55.594;12.986;2023-03-20T09:37:42;5.93;;;4.87;;
14722;SDS011;7452;55.594;12.986;2023-03-20T09:40:12;8.37;;;5.40;;
14722;SDS011;7452;55.594;12.986;2023-03-20T09:42:48;8.43;;;5.70;;
14722;SDS011;7452;55.594;12.986;2023-03-20T09:45:21;5.90;;;4.90;;
14722;SDS011;7452;55.594;12.986;2023-03-20T09:47:59;8.20;;;5.50;;
14722;SDS011;7452;55.594;12.986;2023-03-20T09:50:33;7.67;;;5.57;;
14722;SDS011;7452;55.594;12.986;2023-03-20T09:53:05;7.60;;;5.30;;
14722;SDS011;7452;55.594;12.986;2023-03-20T09:55:37;7.43;;;4.80;;
14722;SDS011;7452;55.594;12.986;2023-03-20T09:58:09;5.73;;;4.73;;
14722;SDS011;7452;55.594;12.986;2023-03-20T10:00:42;6.67;;;4.73;;
14722;SDS011;7452;55.594;12.986;2023-03-20T10:03:14;5.53;;;3.97;;
14722;SDS011;7452;55.594;12.986;2023-03-20T10:05:46;4.83;;;4.00;;
14722;SDS011;7452;55.594;12.986;2023-03-20T10:08:19;4.83;;;3.40;;
14722;SDS011;7452;55.594;12.986;2023-03-20T10:10:51;4.67;;;3.53;;
14722;SDS011;7452;55.594;12.986;2023-03-20T10:16:30;4.07;;;3.20;;
14722;SDS011;7452;55.594;12.986;2023-03-20T10:19:12;4.17;;;3.20;;
14722;SDS011;7452;55.594;12.986;2023-03-20T10:21:45;5.77;;;3.77;;
14722;SDS011;7452;55.594;12.986;2023-03-20T10:24:16;4.57;;;3.47;;
14722;SDS011;7452;55.594;12.986;2023-03-20T10:26:50;4.33;;;3.43;;
14722;SDS011;7452;55.594;12.986;2023-03-20T10:29:21;3.70;;;3.17;;
14722;SDS011;7452;55.594;12.986;2023-03-20T10:31:59;4.87;;;3.77;;
14722;SDS011;7452;55.594;12.986;2023-03-20T10:34:34;4.50;;;3.97;;
14722;SDS011;7452;55.594;12.986;2023-03-20T10:37:29;4.00;;;3.60;;
14722;SDS011;7452;55.594;12.986;2023-03-20T10:40:16;5.33;;;4.07;;
14722;SDS011;7452;55.594;12.986;2023-03-20T10:42:51;4.03;;;3.50;;
14722;SDS011;7452;55.594;12.986;2023-03-20T10:45:31;4.17;;;3.47;;
14722;SDS011;7452;55.594;12.986;2023-03-20T10:48:05;4.67;;;3.87;;
14722;SDS011;7452;55.594;12.986;2023-03-20T10:50:39;5.80;;;4.00;;
14722;SDS011;7452;55.594;12.986;2023-03-20T10:53:09;4.73;;;3.70;;
14722;SDS011;7452;55.594;12.986;2023-03-20T10:55:50;5.43;;;3.57;;
14722;SDS011;7452;55.594;12.986;2023-03-20T10:58:23;4.40;;;3.73;;
14722;SDS011;7452;55.594;12.986;2023-03-20T11:00:52;4.50;;;3.70;;
14722;SDS011;7452;55.594;12.986;2023-03-20T11:03:21;5.07;;;3.73;;
14722;SDS011;7452;55.594;12.986;2023-03-20T11:05:51;4.63;;;3.57;;
14722;SDS011;7452;55.594;12.986;2023-03-20T11:08:21;6.20;;;3.33;;
14722;SDS011;7452;55.594;12.986;2023-03-20T11:10:58;5.23;;;3.60;;
14722;SDS011;7452;55.594;12.986;2023-03-20T11:13:29;4.77;;;3.50;;
14722;SDS011;7452;55.594;12.986;2023-03-20T11:18:44;4.63;;;3.73;;
14722;SDS011;7452;55.594;12.986;2023-03-20T11:21:14;6.37;;;3.73;;
14722;SDS011;7452;55.594;12.986;2023-03-20T11:23:45;4.40;;;3.67;;
14722;SDS011;7452;55.594;12.986;2023-03-20T11:26:14;5.27;;;3.73;;
14722;SDS011;7452;55.594;12.986;2023-03-20T11:28:49;4.60;;;3.30;;
14722;SDS011;7452;55.594;12.986;2023-03-20T11:31:19;4.33;;;3.80;;
14722;SDS011;7452;55.594;12.986;2023-03-20T11:33:52;5.73;;;3.33;;
14722;SDS011;7452;55.594;12.986;2023-03-20T11:36:34;5.90;;;3.43;;
14722;SDS011;7452;55.594;12.986;2023-03-20T11:39:04;6.57;;;3.93;;
14722;SDS011;7452;55.594;12.986;2023-03-20T11:41:41;6.57;;;3.97;;
14722;SDS011;7452;55.594;12.986;2023-03-20T11:44:22;4.63;;;4.00;;
14722;SDS011;7452;55.594;12.986;2023-03-20T11:46:54;7.03;;;4.10;;
14722;SDS011;7452;55.594;12.986;2023-03-20T11:49:22;5.10;;;3.73;;
14722;SDS011;7452;55.594;12.986;2023-03-20T11:51:51;5.13;;;3.83;;
14722;SDS011;7452;55.594;12.986;2023-03-20T11:54:19;6.70;;;3.80;;
14722;SDS011;7452;55.594;12.986;2023-03-20T11:56:53;7.03;;;4.07;;
14722;SDS011;7452;55.594;12.986;2023-03-20T11:59:21;6.53;;;4.27;;
14722;SDS011;7452;55.594;12.986;2023-03-20T12:01:54;7.23;;;3.87;;
14722;SDS011;7452;55.594;12.986;2023-03-20T12:04:26;6.97;;;3.80;;
14722;SDS011;7452;55.594;12.986;2023-03-20T12:06:55;5.43;;;3.90;;
14722;SDS011;7452;55.594;12.986;2023-03-20T12:09:29;6.57;;;4.10;;
14722;SDS011;7452;55.594;12.986;2023-03-20T12:12:02;6.20;;;4.17;;
14722;SDS011;7452;55.594;12.986;2023-03-20T12:14:37;6.40;;;4.50;;
14722;SDS011;7452;55.594;12.986;2023-03-20T12:17:16;7.47;;;4.03;;
14722;SDS011;7452;55.594;12.986;2023-03-20T12:19:53;4.37;;;3.80;;
14722;SDS011;7452;55.594;12.986;2023-03-20T12:22:25;5.23;;;3.60;;
14722;SDS011;7452;55.594;12.986;2023-03-20T12:24:57;5.87;;;3.77;;
14722;SDS011;7452;55.594;12.986;2023-03-20T12:27:31;5.90;;;4.23;;
14722;SDS011;7452;55.594;12.986;2023-03-20T12:30:03;6.23;;;3.90;;
14722;SDS011;7452;55.594;12.986;2023-03-20T12:32:37;8.93;;;4.10;;
14722;SDS011;7452;55.594;12.986;2023-03-20T12:35:10;3.60;;;3.20;;
14722;SDS011;7452;55.594;12.986;2023-03-20T12:37:42;6.57;;;3.27;;
14722;SDS011;7452;55.594;12.986;2023-03-20T12:40:11;6.00;;;3.80;;
14722;SDS011;7452;55.594;12.986;2023-03-20T12:42:45;5.90;;;3.30;;
14722;SDS011;7452;55.594;12.986;2023-03-20T12:45:20;5.00;;;3.10;;
14722;SDS011;7452;55.594;12.986;2023-03-20T12:47:52;3.10;;;2.60;;
14722;SDS011;7452;55.594;12.986;2023-03-20T12:50:31;3.20;;;2.90;;
14722;SDS011;7452;55.594;12.986;2023-03-20T12:53:03;5.10;;;3.00;;
14722;SDS011;7452;55.594;12.986;2023-03-20T12:55:44;3.43;;;2.97;;
14722;SDS011;7452;55.594;12.986;2023-03-20T12:58:26;3.30;;;2.43;;
14722;SDS011;7452;55.594;12.986;2023-03-20T13:01:01;3.13;;;2.60;;
14722;SDS011;7452;55.594;12.986;2023-03-20T13:03:34;3.87;;;2.30;;
14722;SDS011;7452;55.594;12.986;2023-03-20T13:06:23;3.80;;;2.50;;
14722;SDS011;7452;55.594;12.986;2023-03-20T13:11:55;4.57;;;2.67;;
14722;SDS011;7452;55.594;12.986;2023-03-20T13:14:32;2.50;;;2.17;;
14722;SDS011;7452;55.594;12.986;2023-03-20T13:17:09;3.30;;;2.30;;
14722;SDS011;7452;55.594;12.986;2023-03-20T13:19:45;3.63;;;2.60;;
14722;SDS011;7452;55.594;12.986;2023-03-20T13:22:19;3.13;;;1.80;;
14722;SDS011;7452;55.594;12.986;2023-03-20T13:24:52;2.30;;;1.73;;
14722;SDS011;7452;55.594;12.986;2023-03-20T13:27:28;2.20;;;1.60;;
14722;SDS011;7452;55.594;12.986;2023-03-20T13:30:06;1.67;;;1.57;;
14722;SDS011;7452;55.594;12.986;2023-03-20T13:32:44;3.50;;;1.97;;
14722;SDS011;7452;55.594;12.986;2023-03-20T13:35:27;2.13;;;1.90;;
14722;SDS011;7452;55.594;12.986;2023-03-20T13:38:01;3.63;;;2.10;;
14722;SDS011;7452;55.594;12.986;2023-03-20T13:40:38;2.80;;;1.90;;
14722;SDS011;7452;55.594;12.986;2023-03-20T13:43:11;2.47;;;1.70;;
14722;SDS011;7452;55.594;12.986;2023-03-20T13:45:47;4.13;;;1.90;;
14722;SDS011;7452;55.594;12.986;2023-03-20T13:48:20;1.90;;;1.70;;
14722;SDS011;7452;55.594;12.986;2023-03-20T13:50:53;2.13;;;1.93;;
14722;SDS011;7452;55.594;12.986;2023-03-20T13:53:31;2.20;;;1.97;;
14722;SDS011;7452;55.594;12.986;2023-03-20T13:56:04;2.07;;;1.90;;
14722;SDS011;7452;55.594;12.986;2023-03-20T13:58:42;2.70;;;2.17;;
14722;SDS011;7452;55.594;12.986;2023-03-20T14:01:22;3.23;;;2.20;;
14722;SDS011;7452;55.594;12.986;2023-03-20T14:03:56;2.43;;;2.23;;
14722;SDS011;7452;55.594;12.986;2023-03-20T14:06:42;4.03;;;2.13;;
14722;SDS011;7452;55.594;12.986;2023-03-20T14:09:30;2.40;;;2.20;;
14722;SDS011;7452;55.594;12.986;2023-03-20T14:12:00;2.97;;;1.97;;
14722;SDS011;7452;55.594;12.986;2023-03-20T14:14:29;3.63;;;2.50;;
14722;SDS011;7452;55.594;12.986;2023-03-20T14:17:02;5.57;;;2.30;;
14722;SDS011;7452;55.594;12.986;2023-03-20T14:19:37;2.37;;;2.10;;
14722;SDS011;7452;55.594;12.986;2023-03-20T14:22:04;3.10;;;2.70;;
14722;SDS011;7452;55.594;12.986;2023-03-20T14:24:34;3.67;;;2.60;;
14722;SDS011;7452;55.594;12.986;2023-03-20T14:27:02;2.83;;;2.43;;
14722;SDS011;7452;55.594;12.986;2023-03-20T14:29:31;4.00;;;2.90;;
14722;SDS011;7452;55.594;12.986;2023-03-20T14:32:20;3.23;;;2.60;;
14722;SDS011;7452;55.594;12.986;2023-03-20T14:34:49;2.60;;;2.37;;
14722;SDS011;7452;55.594;12.986;2023-03-20T14:40:23;4.40;;;2.50;;
14722;SDS011;7452;55.594;12.986;2023-03-20T14:42:54;4.30;;;2.60;;
14722;SDS011;7452;55.594;12.986;2023-03-20T14:48:10;3.10;;;2.80;;
14722;SDS011;7452;55.594;12.986;2023-03-20T14:50:49;4.90;;;2.80;;
14722;SDS011;7452;55.594;12.986;2023-03-20T14:53:21;2.77;;;2.47;;
14722;SDS011;7452;55.594;12.986;2023-03-20T14:55:50;4.93;;;3.17;;
14722;SDS011;7452;55.594;12.986;2023-03-20T14:58:34;2.83;;;2.53;;
14722;SDS011;7452;55.594;12.986;2023-03-20T15:01:26;3.83;;;3.00;;
14722;SDS011;7452;55.594;12.986;2023-03-20T15:04:14;4.47;;;3.10;;
14722;SDS011;7452;55.594;12.986;2023-03-20T15:06:56;5.70;;;3.47;;
14722;SDS011;7452;55.594;12.986;2023-03-20T15:09:26;4.40;;;3.20;;
14722;SDS011;7452;55.594;12.986;2023-03-20T15:11:55;4.50;;;3.50;;
14722;SDS011;7452;55.594;12.986;2023-03-20T15:14:28;4.80;;;3.77;;
14722;SDS011;7452;55.594;12.986;2023-03-20T15:17:00;4.20;;;3.70;;
14722;SDS011;7452;55.594;12.986;2023-03-20T15:19:29;5.33;;;4.10;;